createdAt,value
2023-05-17T00:00:09.198Z,1014.01
2023-05-17T00:00:39.661Z,1014.02
2023-05-17T00:01:10.564Z,1014.02
2023-05-17T00:01:41.510Z,1014.05
2023-05-17T00:02:12.488Z,1014.07
2023-05-17T00:02:43.460Z,1014.06
2023-05-17T00:03:13.910Z,1014.06
2023-05-17T00:03:44.798Z,1014.06
2023-05-17T00:04:15.775Z,1014.09
2023-05-17T00:04:46.562Z,1014.08
2023-05-17T00:05:17.140Z,1014.10
2023-05-17T00:05:47.811Z,1014.09
2023-05-17T00:06:18.558Z,1014.10
2023-05-17T00:06:49.420Z,1014.11
2023-05-17T00:07:19.956Z,1014.13
2023-05-17T00:07:50.605Z,1014.09
2023-05-17T00:08:20.991Z,1014.07
2023-05-17T00:08:51.885Z,1014.09
2023-05-17T00:09:22.844Z,1014.12
2023-05-17T00:09:53.763Z,1014.12
2023-05-17T00:10:24.652Z,1014.13
2023-05-17T00:10:55.549Z,1014.12
2023-05-17T00:11:26.602Z,1014.12
2023-05-17T00:11:57.150Z,1014.15
2023-05-17T00:12:27.621Z,1014.16
2023-05-17T00:12:58.595Z,1014.18
2023-05-17T00:13:29.578Z,1014.15
2023-05-17T00:14:00.093Z,1014.16
2023-05-17T00:14:30.628Z,1014.16
2023-05-17T00:15:01.018Z,1014.14
2023-05-17T00:15:31.918Z,1014.12
2023-05-17T00:16:02.874Z,1014.12
2023-05-17T00:16:33.832Z,1014.12
2023-05-17T00:17:04.730Z,1014.15
2023-05-17T00:17:35.729Z,1014.12
2023-05-17T00:18:06.654Z,1014.12
2023-05-17T00:18:37.096Z,1014.13
2023-05-17T00:19:08.044Z,1014.15
2023-05-17T00:19:38.426Z,1014.13
2023-05-17T00:20:09.223Z,1014.17
2023-05-17T00:20:40.174Z,1014.15
2023-05-17T00:21:11.210Z,1014.17
2023-05-17T00:21:41.720Z,1014.15
2023-05-17T00:22:12.626Z,1014.16
2023-05-17T00:22:43.533Z,1014.17
2023-05-17T00:23:14.475Z,1014.15
2023-05-17T00:23:45.366Z,1014.18
2023-05-17T00:24:16.521Z,1014.18
2023-05-17T00:24:46.990Z,1014.20
2023-05-17T00:25:18.020Z,1014.21
2023-05-17T00:25:48.569Z,1014.24
2023-05-17T00:26:19.034Z,1014.25
2023-05-17T00:26:50.021Z,1014.26
2023-05-17T00:27:20.597Z,1014.28
2023-05-17T00:27:51.079Z,1014.29
2023-05-17T00:28:21.954Z,1014.29
2023-05-17T00:28:52.832Z,1014.32
2023-05-17T00:29:23.721Z,1014.30
2023-05-17T00:29:54.637Z,1014.32
2023-05-17T00:30:25.527Z,1014.32
2023-05-17T00:30:56.421Z,1014.34
2023-05-17T00:31:27.350Z,1014.33
2023-05-17T00:31:58.337Z,1014.35
2023-05-17T00:32:29.409Z,1014.34
2023-05-17T00:32:59.982Z,1014.36
2023-05-17T00:33:30.493Z,1014.34
2023-05-17T00:34:01.000Z,1014.36
2023-05-17T00:34:31.601Z,1014.38
2023-05-17T00:35:02.045Z,1014.38
2023-05-17T00:35:32.998Z,1014.39
2023-05-17T00:36:03.893Z,1014.41
2023-05-17T00:36:34.834Z,1014.42
2023-05-17T00:37:05.879Z,1014.42
2023-05-17T00:37:36.264Z,1014.43
2023-05-17T00:38:07.288Z,1014.44
2023-05-17T00:38:37.766Z,1014.45
2023-05-17T00:39:08.248Z,1014.46
2023-05-17T00:39:39.190Z,1014.46
2023-05-17T00:40:10.137Z,1014.46
2023-05-17T00:40:41.154Z,1014.45
2023-05-17T00:41:11.616Z,1014.46
2023-05-17T00:41:42.496Z,1014.43
2023-05-17T00:42:13.398Z,1014.44
2023-05-17T00:42:44.318Z,1014.43
2023-05-17T00:43:15.238Z,1014.45
2023-05-17T00:43:46.199Z,1014.46
2023-05-17T00:44:17.101Z,1014.46
2023-05-17T00:44:48.121Z,1014.44
2023-05-17T00:45:18.577Z,1014.45
2023-05-17T00:45:49.527Z,1014.43
2023-05-17T00:46:20.461Z,1014.43
2023-05-17T00:46:51.486Z,1014.46
2023-05-17T00:47:22.138Z,1014.46
2023-05-17T00:47:52.800Z,1014.47
2023-05-17T00:48:23.886Z,1014.45
2023-05-17T00:48:54.329Z,1014.45
2023-05-17T00:49:25.361Z,1014.46
2023-05-17T00:49:55.808Z,1014.47
2023-05-17T00:50:26.721Z,1014.48
2023-05-17T00:50:57.711Z,1014.46
2023-05-17T00:51:28.682Z,1014.48
2023-05-17T00:51:59.636Z,1014.50
2023-05-17T00:52:30.703Z,1014.50
2023-05-17T00:53:01.168Z,1014.50
2023-05-17T00:53:32.130Z,1014.52
2023-05-17T00:54:03.078Z,1014.53
2023-05-17T00:54:33.993Z,1014.56
2023-05-17T00:55:04.882Z,1014.54
2023-05-17T00:55:35.809Z,1014.56
2023-05-17T00:56:06.754Z,1014.59
2023-05-17T00:56:37.655Z,1014.57
2023-05-17T00:57:08.612Z,1014.57
2023-05-17T00:57:39.516Z,1014.57
2023-05-17T00:58:10.467Z,1014.57
2023-05-17T00:58:41.746Z,1014.56
2023-05-17T00:59:12.300Z,1014.56
2023-05-17T00:59:42.963Z,1014.56
2023-05-17T01:00:13.370Z,1014.56
2023-05-17T01:00:44.282Z,1014.57
2023-05-17T01:01:15.246Z,1014.57
2023-05-17T01:01:46.179Z,1014.56
2023-05-17T01:02:17.113Z,1014.58
2023-05-17T01:02:48.111Z,1014.57
2023-05-17T01:03:18.763Z,1014.58
2023-05-17T01:03:49.588Z,1014.58
2023-05-17T01:04:20.396Z,1014.58
2023-05-17T01:04:51.260Z,1014.59
2023-05-17T01:05:21.763Z,1014.58
2023-05-17T01:05:52.928Z,1014.59
2023-05-17T01:06:23.386Z,1014.59
2023-05-17T01:06:54.275Z,1014.59
2023-05-17T01:07:25.172Z,1014.57
2023-05-17T01:07:56.187Z,1014.56
2023-05-17T01:08:26.599Z,1014.56
2023-05-17T01:08:57.492Z,1014.58
2023-05-17T01:09:28.411Z,1014.60
2023-05-17T01:09:59.348Z,1014.62
2023-05-17T01:10:30.294Z,1014.64
2023-05-17T01:11:01.242Z,1014.63
2023-05-17T01:11:32.215Z,1014.65
2023-05-17T01:12:02.770Z,1014.64
2023-05-17T01:12:33.229Z,1014.66
2023-05-17T01:13:04.111Z,1014.64
2023-05-17T01:13:35.071Z,1014.63
2023-05-17T01:14:06.025Z,1014.67
2023-05-17T01:14:36.948Z,1014.67
2023-05-17T01:15:07.874Z,1014.66
2023-05-17T01:15:38.758Z,1014.67
2023-05-17T01:16:09.709Z,1014.66
2023-05-17T01:16:40.668Z,1014.65
2023-05-17T01:17:11.741Z,1014.67
2023-05-17T01:17:42.251Z,1014.66
2023-05-17T01:18:12.844Z,1014.66
2023-05-17T01:18:43.365Z,1014.66
2023-05-17T01:19:14.026Z,1014.68
2023-05-17T01:19:44.601Z,1014.68
2023-05-17T01:20:15.138Z,1014.69
2023-05-17T01:20:45.598Z,1014.70
2023-05-17T01:21:16.555Z,1014.70
2023-05-17T01:21:47.445Z,1014.70
2023-05-17T01:22:18.424Z,1014.70
2023-05-17T01:22:49.562Z,1014.72
2023-05-17T01:23:20.218Z,1014.71
2023-05-17T01:23:51.187Z,1014.73
2023-05-17T01:24:21.732Z,1014.75
2023-05-17T01:24:52.388Z,1014.75
2023-05-17T01:25:22.785Z,1014.74
2023-05-17T01:25:53.682Z,1014.75
2023-05-17T01:26:24.670Z,1014.74
2023-05-17T01:26:55.149Z,1014.73
2023-05-17T01:27:26.050Z,1014.74
2023-05-17T01:27:56.967Z,1014.77
2023-05-17T01:28:27.925Z,1014.77
2023-05-17T01:28:58.870Z,1014.78
2023-05-17T01:29:29.860Z,1014.78
2023-05-17T01:30:00.441Z,1014.76
2023-05-17T01:30:30.920Z,1014.78
2023-05-17T01:31:01.959Z,1014.78
2023-05-17T01:31:32.565Z,1014.81
2023-05-17T01:32:02.985Z,1014.81
2023-05-17T01:32:34.061Z,1014.80
2023-05-17T01:33:04.972Z,1014.81
2023-05-17T01:33:35.621Z,1014.84
2023-05-17T01:34:06.069Z,1014.83
2023-05-17T01:34:36.938Z,1014.83
2023-05-17T01:35:08.085Z,1014.82
2023-05-17T01:35:38.638Z,1014.84
2023-05-17T01:36:09.379Z,1014.83
2023-05-17T01:36:39.898Z,1014.83
2023-05-17T01:37:10.622Z,1014.84
2023-05-17T01:37:41.171Z,1014.84
2023-05-17T01:38:11.837Z,1014.83
2023-05-17T01:38:42.380Z,1014.85
2023-05-17T01:39:13.089Z,1014.85
2023-05-17T01:39:43.495Z,1014.87
2023-05-17T01:40:14.400Z,1014.86
2023-05-17T01:40:45.369Z,1014.86
2023-05-17T01:41:16.325Z,1014.84
2023-05-17T01:41:47.256Z,1014.84
2023-05-17T01:42:18.459Z,1014.85
2023-05-17T01:42:48.879Z,1014.85
2023-05-17T01:43:19.910Z,1014.82
2023-05-17T01:43:50.886Z,1014.85
2023-05-17T01:44:22.041Z,1014.83
2023-05-17T01:44:52.580Z,1014.82
2023-05-17T01:45:23.207Z,1014.80
2023-05-17T01:45:53.606Z,1014.81
2023-05-17T01:46:24.492Z,1014.82
2023-05-17T01:46:55.400Z,1014.81
2023-05-17T01:47:26.351Z,1014.82
2023-05-17T01:47:57.264Z,1014.82
2023-05-17T01:48:27.791Z,1014.83
2023-05-17T01:48:58.724Z,1014.80
2023-05-17T01:49:29.684Z,1014.81
2023-05-17T01:50:00.641Z,1014.82
2023-05-17T01:50:31.604Z,1014.81
2023-05-17T01:51:02.504Z,1014.82
2023-05-17T01:51:33.390Z,1014.82
2023-05-17T01:52:04.310Z,1014.82
2023-05-17T01:52:35.194Z,1014.82
2023-05-17T01:53:06.100Z,1014.81
2023-05-17T01:53:36.963Z,1014.82
2023-05-17T01:54:08.083Z,1014.84
2023-05-17T01:54:38.508Z,1014.85
2023-05-17T01:55:09.665Z,1014.84
2023-05-17T01:55:40.209Z,1014.84
2023-05-17T01:56:10.945Z,1014.84
2023-05-17T01:56:41.392Z,1014.84
2023-05-17T01:57:12.557Z,1014.83
2023-05-17T01:57:42.943Z,1014.85
2023-05-17T01:58:13.835Z,1014.85
2023-05-17T01:58:44.750Z,1014.84
2023-05-17T01:59:15.713Z,1014.85
2023-05-17T01:59:46.624Z,1014.86
2023-05-17T02:00:17.502Z,1014.86
2023-05-17T02:00:48.397Z,1014.89
2023-05-17T02:01:19.408Z,1014.90
2023-05-17T02:01:50.355Z,1014.90
2023-05-17T02:02:21.393Z,1014.88
2023-05-17T02:02:51.921Z,1014.88
2023-05-17T02:03:22.469Z,1014.89
2023-05-17T02:03:53.008Z,1014.89
2023-05-17T02:04:23.510Z,1014.90
2023-05-17T02:04:54.457Z,1014.90
2023-05-17T02:05:25.449Z,1014.89
2023-05-17T02:05:56.374Z,1014.89
2023-05-17T02:06:27.253Z,1014.89
2023-05-17T02:06:58.357Z,1014.88
2023-05-17T02:07:28.878Z,1014.87
2023-05-17T02:07:59.352Z,1014.90
2023-05-17T02:08:30.392Z,1014.88
2023-05-17T02:09:00.868Z,1014.85
2023-05-17T02:09:31.513Z,1014.85
2023-05-17T02:10:02.001Z,1014.86
2023-05-17T02:10:32.471Z,1014.87
2023-05-17T02:11:03.332Z,1014.88
2023-05-17T02:11:34.296Z,1014.85
2023-05-17T02:12:05.200Z,1014.88
2023-05-17T02:12:36.095Z,1014.86
2023-05-17T02:13:07.047Z,1014.86
2023-05-17T02:13:37.982Z,1014.86
2023-05-17T02:14:09.010Z,1014.85
2023-05-17T02:14:39.498Z,1014.85
2023-05-17T02:15:09.956Z,1014.86
2023-05-17T02:15:40.959Z,1014.88
2023-05-17T02:16:11.929Z,1014.89
2023-05-17T02:16:42.950Z,1014.88
2023-05-17T02:17:13.466Z,1014.88
2023-05-17T02:17:43.948Z,1014.88
2023-05-17T02:18:14.959Z,1014.86
2023-05-17T02:18:45.542Z,1014.86
2023-05-17T02:19:16.098Z,1014.85
2023-05-17T02:19:47.076Z,1014.85
2023-05-17T02:20:17.542Z,1014.86
2023-05-17T02:20:48.448Z,1014.86
2023-05-17T02:21:19.399Z,1014.86
2023-05-17T02:21:50.349Z,1014.86
2023-05-17T02:22:21.317Z,1014.89
2023-05-17T02:22:52.262Z,1014.87
2023-05-17T02:23:23.241Z,1014.89
2023-05-17T02:23:53.817Z,1014.87
2023-05-17T02:24:24.195Z,1014.88
2023-05-17T02:24:55.370Z,1014.91
2023-05-17T02:25:25.845Z,1014.89
2023-05-17T02:25:56.364Z,1014.89
2023-05-17T02:26:27.304Z,1014.87
2023-05-17T02:26:58.228Z,1014.89
2023-05-17T02:27:29.113Z,1014.88
2023-05-17T02:28:00.074Z,1014.87
2023-05-17T02:28:31.072Z,1014.89
2023-05-17T02:29:02.051Z,1014.88
2023-05-17T02:29:33.101Z,1014.87
2023-05-17T02:30:03.662Z,1014.87
2023-05-17T02:30:34.160Z,1014.87
2023-05-17T02:31:04.591Z,1014.87
2023-05-17T02:31:35.489Z,1014.86
2023-05-17T02:32:06.391Z,1014.85
2023-05-17T02:32:37.372Z,1014.85
2023-05-17T02:33:07.991Z,1014.83
2023-05-17T02:33:38.540Z,1014.84
2023-05-17T02:34:08.978Z,1014.82
2023-05-17T02:34:40.157Z,1014.84
2023-05-17T02:35:10.740Z,1014.82
2023-05-17T02:35:41.427Z,1014.81
2023-05-17T02:36:11.960Z,1014.80
2023-05-17T02:36:42.603Z,1014.81
2023-05-17T02:37:13.114Z,1014.83
2023-05-17T02:37:44.289Z,1014.84
2023-05-17T02:38:14.780Z,1014.82
2023-05-17T02:38:45.724Z,1014.82
2023-05-17T02:39:16.653Z,1014.81
2023-05-17T02:39:47.651Z,1014.81
2023-05-17T02:40:18.649Z,1014.81
2023-05-17T02:40:49.075Z,1014.82
2023-05-17T02:41:20.226Z,1014.81
2023-05-17T02:41:50.765Z,1014.81
2023-05-17T02:42:21.273Z,1014.81
2023-05-17T02:42:52.209Z,1014.80
2023-05-17T02:43:23.191Z,1014.81
2023-05-17T02:43:54.144Z,1014.80
2023-05-17T02:44:25.102Z,1014.80
2023-05-17T02:44:56.002Z,1014.81
2023-05-17T02:45:27.096Z,1014.78
2023-05-17T02:45:57.874Z,1014.80
2023-05-17T02:46:28.819Z,1014.82
2023-05-17T02:46:59.740Z,1014.82
2023-05-17T02:47:30.754Z,1014.80
2023-05-17T02:48:01.567Z,1014.82
2023-05-17T02:48:32.513Z,1014.83
2023-05-17T02:49:03.568Z,1014.82
2023-05-17T02:49:34.037Z,1014.80
2023-05-17T02:50:05.039Z,1014.82
2023-05-17T02:50:35.942Z,1014.84
2023-05-17T02:51:06.844Z,1014.83
2023-05-17T02:51:37.728Z,1014.83
2023-05-17T02:52:08.636Z,1014.84
2023-05-17T02:52:39.561Z,1014.84
2023-05-17T02:53:10.561Z,1014.86
2023-05-17T02:53:41.532Z,1014.85
2023-05-17T02:54:12.476Z,1014.86
2023-05-17T02:54:43.512Z,1014.85
2023-05-17T02:55:13.993Z,1014.85
2023-05-17T02:55:44.685Z,1014.88
2023-05-17T02:56:15.386Z,1014.84
2023-05-17T02:56:45.796Z,1014.84
2023-05-17T02:57:16.683Z,1014.85
2023-05-17T02:57:47.642Z,1014.86
2023-05-17T02:58:18.591Z,1014.86
2023-05-17T02:58:49.474Z,1014.83
2023-05-17T02:59:20.368Z,1014.84
2023-05-17T02:59:51.404Z,1014.87
2023-05-17T03:00:22.288Z,1014.87
2023-05-17T03:00:53.253Z,1014.88
2023-05-17T03:01:24.205Z,1014.88
2023-05-17T03:01:55.215Z,1014.90
2023-05-17T03:02:25.715Z,1014.88
2023-05-17T03:02:56.286Z,1014.88
2023-05-17T03:03:26.939Z,1014.93
2023-05-17T03:03:57.498Z,1014.96
2023-05-17T03:04:28.108Z,1014.95
2023-05-17T03:04:59.096Z,1014.92
2023-05-17T03:05:30.302Z,1014.93
2023-05-17T03:06:00.838Z,1014.92
2023-05-17T03:06:31.738Z,1014.97
2023-05-17T03:07:03.864Z,1014.97
2023-05-17T03:07:33.826Z,1014.96
2023-05-17T03:08:03.931Z,1014.98
2023-05-17T03:08:34.359Z,1014.96
2023-05-17T03:09:05.332Z,1014.99
2023-05-17T03:09:36.230Z,1015.00
2023-05-17T03:10:07.201Z,1015.00
2023-05-17T03:10:38.152Z,1015.02
2023-05-17T03:11:09.162Z,1015.02
2023-05-17T03:11:39.639Z,1015.02
2023-05-17T03:12:10.555Z,1015.03
2023-05-17T03:12:41.829Z,1015.06
2023-05-17T03:13:12.327Z,1015.04
2023-05-17T03:13:43.318Z,1015.04
2023-05-17T03:14:14.468Z,1015.04
2023-05-17T03:14:44.975Z,1015.06
2023-05-17T03:15:15.820Z,1015.07
2023-05-17T03:15:46.696Z,1015.06
2023-05-17T03:16:17.600Z,1015.10
2023-05-17T03:16:48.487Z,1015.09
2023-05-17T03:17:19.414Z,1015.09
2023-05-17T03:17:50.462Z,1015.11
2023-05-17T03:18:21.033Z,1015.12
2023-05-17T03:18:51.669Z,1015.14
2023-05-17T03:19:22.821Z,1015.13
2023-05-17T03:19:53.157Z,1015.15
2023-05-17T03:20:23.871Z,1015.16
2023-05-17T03:20:54.398Z,1015.17
2023-05-17T03:21:25.063Z,1015.17
2023-05-17T03:21:55.597Z,1015.20
2023-05-17T03:22:26.343Z,1015.20
2023-05-17T03:22:56.851Z,1015.22
2023-05-17T03:23:27.730Z,1015.20
2023-05-17T03:23:58.642Z,1015.20
2023-05-17T03:24:29.540Z,1015.20
2023-05-17T03:25:00.421Z,1015.21
2023-05-17T03:25:31.382Z,1015.22
2023-05-17T03:26:01.880Z,1015.22
2023-05-17T03:26:32.954Z,1015.24
2023-05-17T03:27:03.415Z,1015.25
2023-05-17T03:27:34.652Z,1015.25
2023-05-17T03:28:04.965Z,1015.27
2023-05-17T03:28:35.610Z,1015.26
2023-05-17T03:29:06.090Z,1015.29
2023-05-17T03:29:36.775Z,1015.30
2023-05-17T03:30:07.294Z,1015.29
2023-05-17T03:30:37.798Z,1015.29
2023-05-17T03:31:08.300Z,1015.27
2023-05-17T03:31:39.197Z,1015.30
2023-05-17T03:32:10.099Z,1015.33
2023-05-17T03:32:41.094Z,1015.32
2023-05-17T03:33:11.696Z,1015.33
2023-05-17T03:33:42.196Z,1015.35
2023-05-17T03:34:13.237Z,1015.34
2023-05-17T03:34:43.751Z,1015.35
2023-05-17T03:35:14.145Z,1015.36
2023-05-17T03:35:45.119Z,1015.37
2023-05-17T03:36:16.214Z,1015.38
2023-05-17T03:36:46.689Z,1015.37
2023-05-17T03:37:17.777Z,1015.39
2023-05-17T03:37:48.104Z,1015.42
2023-05-17T03:38:18.959Z,1015.42
2023-05-17T03:38:49.800Z,1015.44
2023-05-17T03:39:20.663Z,1015.43
2023-05-17T03:39:51.500Z,1015.42
2023-05-17T03:40:22.438Z,1015.44
2023-05-17T03:40:53.288Z,1015.45
2023-05-17T03:41:24.276Z,1015.45
2023-05-17T03:41:55.340Z,1015.47
2023-05-17T03:42:25.771Z,1015.48
2023-05-17T03:42:56.668Z,1015.51
2023-05-17T03:43:27.640Z,1015.51
2023-05-17T03:43:58.508Z,1015.51
2023-05-17T03:44:29.371Z,1015.52
2023-05-17T03:45:00.261Z,1015.53
2023-05-17T03:45:31.325Z,1015.53
2023-05-17T03:46:01.677Z,1015.52
2023-05-17T03:46:32.535Z,1015.53
2023-05-17T03:47:03.467Z,1015.55
2023-05-17T03:47:34.364Z,1015.53
2023-05-17T03:48:05.542Z,1015.55
2023-05-17T03:48:36.565Z,1015.56
2023-05-17T03:49:07.058Z,1015.54
2023-05-17T03:49:37.399Z,1015.53
2023-05-17T03:50:08.435Z,1015.55
2023-05-17T03:50:38.780Z,1015.56
2023-05-17T03:51:09.625Z,1015.58
2023-05-17T03:51:40.486Z,1015.56
2023-05-17T03:52:11.325Z,1015.58
2023-05-17T03:52:42.300Z,1015.59
2023-05-17T03:53:13.116Z,1015.54
2023-05-17T03:53:44.002Z,1015.55
2023-05-17T03:54:15.118Z,1015.55
2023-05-17T03:54:48.071Z,1015.56
2023-05-17T03:55:16.432Z,1015.59
2023-05-17T03:55:46.875Z,1015.60
2023-05-17T03:56:17.978Z,1015.58
2023-05-17T03:56:48.421Z,1015.58
2023-05-17T03:57:19.356Z,1015.59
2023-05-17T03:57:50.209Z,1015.59
2023-05-17T03:58:21.102Z,1015.59
2023-05-17T03:58:52.020Z,1015.60
2023-05-17T03:59:22.899Z,1015.62
2023-05-17T03:59:53.924Z,1015.62
2023-05-17T04:00:24.592Z,1015.62
2023-05-17T04:00:54.937Z,1015.63
2023-05-17T04:01:25.867Z,1015.63
2023-05-17T04:01:56.755Z,1015.61
2023-05-17T04:02:27.706Z,1015.63
2023-05-17T04:02:58.620Z,1015.63
2023-05-17T04:03:29.057Z,1015.64
2023-05-17T04:03:59.939Z,1015.62
2023-05-17T04:04:30.911Z,1015.63
2023-05-17T04:05:01.895Z,1015.65
2023-05-17T04:05:32.783Z,1015.67
2023-05-17T04:06:03.653Z,1015.67
2023-05-17T04:06:34.550Z,1015.68
2023-05-17T04:07:05.447Z,1015.68
2023-05-17T04:07:36.448Z,1015.68
2023-05-17T04:08:07.585Z,1015.71
2023-05-17T04:08:37.980Z,1015.72
2023-05-17T04:09:09.075Z,1015.75
2023-05-17T04:09:39.412Z,1015.75
2023-05-17T04:10:10.315Z,1015.74
2023-05-17T04:10:41.198Z,1015.77
2023-05-17T04:11:12.071Z,1015.75
2023-05-17T04:11:42.964Z,1015.76
2023-05-17T04:12:13.832Z,1015.78
2023-05-17T04:12:44.885Z,1015.79
2023-05-17T04:13:15.361Z,1015.80
2023-05-17T04:13:46.351Z,1015.81
2023-05-17T04:14:16.813Z,1015.81
2023-05-17T04:14:47.723Z,1015.82
2023-05-17T04:15:18.622Z,1015.83
2023-05-17T04:15:49.466Z,1015.83
2023-05-17T04:16:20.313Z,1015.84
2023-05-17T04:16:51.236Z,1015.88
2023-05-17T04:17:22.123Z,1015.90
2023-05-17T04:17:53.039Z,1015.90
2023-05-17T04:18:24.035Z,1015.88
2023-05-17T04:18:54.900Z,1015.88
2023-05-17T04:19:25.297Z,1015.90
2023-05-17T04:19:56.339Z,1015.89
2023-05-17T04:20:26.802Z,1015.91
2023-05-17T04:20:57.882Z,1015.93
2023-05-17T04:21:28.358Z,1015.94
2023-05-17T04:21:59.466Z,1015.92
2023-05-17T04:22:29.792Z,1015.95
2023-05-17T04:23:00.633Z,1015.97
2023-05-17T04:23:31.487Z,1015.95
2023-05-17T04:24:02.359Z,1015.96
2023-05-17T04:24:33.209Z,1015.96
2023-05-17T04:25:04.028Z,1015.96
2023-05-17T04:25:34.600Z,1015.98
2023-05-17T04:26:05.493Z,1015.96
2023-05-17T04:26:36.600Z,1015.99
2023-05-17T04:27:07.100Z,1016.01
2023-05-17T04:27:37.746Z,1015.99
2023-05-17T04:28:08.400Z,1016.02
2023-05-17T04:28:39.035Z,1016.01
2023-05-17T04:29:09.537Z,1016.00
2023-05-17T04:29:39.879Z,1016.01
2023-05-17T04:30:10.770Z,1016.02
2023-05-17T04:30:41.655Z,1016.03
2023-05-17T04:31:12.476Z,1016.04
2023-05-17T04:31:43.321Z,1016.04
2023-05-17T04:32:14.147Z,1016.05
2023-05-17T04:32:45.193Z,1016.05
2023-05-17T04:33:15.781Z,1016.05
2023-05-17T04:33:46.492Z,1016.05
2023-05-17T04:34:17.001Z,1016.04
2023-05-17T04:34:48.046Z,1016.03
2023-05-17T04:35:18.980Z,1016.04
2023-05-17T04:35:49.879Z,1016.05
2023-05-17T04:36:20.730Z,1016.05
2023-05-17T04:36:51.581Z,1016.06
2023-05-17T04:37:22.456Z,1016.07
2023-05-17T04:37:53.323Z,1016.06
2023-05-17T04:38:24.150Z,1016.07
2023-05-17T04:38:55.007Z,1016.08
2023-05-17T04:39:25.972Z,1016.10
2023-05-17T04:39:56.905Z,1016.07
2023-05-17T04:40:27.838Z,1016.12
2023-05-17T04:40:58.818Z,1016.12
2023-05-17T04:41:29.712Z,1016.11
2023-05-17T04:42:00.573Z,1016.12
2023-05-17T04:42:31.436Z,1016.13
2023-05-17T04:43:02.350Z,1016.14
2023-05-17T04:43:33.323Z,1016.15
2023-05-17T04:44:03.938Z,1016.15
2023-05-17T04:44:34.273Z,1016.17
2023-05-17T04:45:05.114Z,1016.15
2023-05-17T04:45:36.146Z,1016.16
2023-05-17T04:46:06.656Z,1016.17
2023-05-17T04:46:37.650Z,1016.17
2023-05-17T04:47:08.076Z,1016.17
2023-05-17T04:47:39.021Z,1016.17
2023-05-17T04:48:10.106Z,1016.18
2023-05-17T04:48:40.994Z,1016.18
2023-05-17T04:49:11.562Z,1016.18
2023-05-17T04:49:42.404Z,1016.21
2023-05-17T04:50:13.251Z,1016.19
2023-05-17T04:50:44.080Z,1016.19
2023-05-17T04:51:14.928Z,1016.21
2023-05-17T04:51:45.750Z,1016.23
2023-05-17T04:52:16.826Z,1016.24
2023-05-17T04:52:47.305Z,1016.26
2023-05-17T04:53:18.472Z,1016.23
2023-05-17T04:53:48.923Z,1016.27
2023-05-17T04:54:20.023Z,1016.26
2023-05-17T04:54:50.472Z,1016.27
2023-05-17T04:55:21.533Z,1016.26
2023-05-17T04:55:51.901Z,1016.25
2023-05-17T04:56:22.784Z,1016.24
2023-05-17T04:56:53.694Z,1016.26
2023-05-17T04:57:24.584Z,1016.26
2023-05-17T04:57:55.418Z,1016.28
2023-05-17T04:58:26.256Z,1016.28
2023-05-17T04:58:57.189Z,1016.27
2023-05-17T04:59:28.089Z,1016.28
2023-05-17T04:59:58.995Z,1016.31
2023-05-17T05:00:29.871Z,1016.31
2023-05-17T05:01:00.831Z,1016.31
2023-05-17T05:01:31.741Z,1016.34
2023-05-17T05:02:02.666Z,1016.32
2023-05-17T05:02:33.605Z,1016.34
2023-05-17T05:03:04.542Z,1016.35
2023-05-17T05:03:34.994Z,1016.35
2023-05-17T05:04:06.069Z,1016.32
2023-05-17T05:04:36.662Z,1016.33
2023-05-17T05:05:07.896Z,1016.33
2023-05-17T05:05:38.478Z,1016.34
2023-05-17T05:06:09.573Z,1016.35
2023-05-17T05:06:40.039Z,1016.36
2023-05-17T05:07:11.192Z,1016.37
2023-05-17T05:07:41.649Z,1016.39
2023-05-17T05:08:12.499Z,1016.37
2023-05-17T05:08:43.330Z,1016.35
2023-05-17T05:09:14.185Z,1016.36
2023-05-17T05:09:45.034Z,1016.35
2023-05-17T05:10:15.901Z,1016.37
2023-05-17T05:10:46.793Z,1016.38
2023-05-17T05:11:17.961Z,1016.38
2023-05-17T05:11:48.405Z,1016.40
2023-05-17T05:12:19.564Z,1016.40
2023-05-17T05:12:50.029Z,1016.42
2023-05-17T05:13:21.107Z,1016.40
2023-05-17T05:13:51.608Z,1016.42
2023-05-17T05:14:22.377Z,1016.40
2023-05-17T05:14:52.719Z,1016.40
2023-05-17T05:15:23.554Z,1016.41
2023-05-17T05:15:54.469Z,1016.46
2023-05-17T05:16:25.316Z,1016.47
2023-05-17T05:16:56.268Z,1016.46
2023-05-17T05:17:27.212Z,1016.47
2023-05-17T05:17:57.866Z,1016.47
2023-05-17T05:18:28.465Z,1016.49
2023-05-17T05:18:59.211Z,1016.51
2023-05-17T05:19:29.971Z,1016.52
2023-05-17T05:20:00.646Z,1016.52
2023-05-17T05:20:31.431Z,1016.53
2023-05-17T05:21:01.936Z,1016.53
2023-05-17T05:21:32.790Z,1016.53
2023-05-17T05:22:03.644Z,1016.54
2023-05-17T05:22:34.496Z,1016.52
2023-05-17T05:23:05.403Z,1016.51
2023-05-17T05:23:36.248Z,1016.52
2023-05-17T05:24:07.162Z,1016.56
2023-05-17T05:24:38.190Z,1016.55
2023-05-17T05:25:08.570Z,1016.56
2023-05-17T05:25:39.873Z,1016.53
2023-05-17T05:26:10.351Z,1016.54
2023-05-17T05:26:41.247Z,1016.53
2023-05-17T05:27:12.201Z,1016.51
2023-05-17T05:27:43.027Z,1016.53
2023-05-17T05:28:13.891Z,1016.55
2023-05-17T05:28:44.795Z,1016.53
2023-05-17T05:29:15.701Z,1016.56
2023-05-17T05:29:46.765Z,1016.56
2023-05-17T05:30:17.120Z,1016.56
2023-05-17T05:30:47.951Z,1016.57
2023-05-17T05:31:19.249Z,1016.59
2023-05-17T05:31:49.641Z,1016.58
2023-05-17T05:32:20.829Z,1016.59
2023-05-17T05:32:51.426Z,1016.58
2023-05-17T05:33:22.347Z,1016.61
2023-05-17T05:33:52.897Z,1016.63
2023-05-17T05:34:23.757Z,1016.63
2023-05-17T05:34:54.619Z,1016.59
2023-05-17T05:35:25.494Z,1016.64
2023-05-17T05:35:56.386Z,1016.65
2023-05-17T05:36:27.269Z,1016.66
2023-05-17T05:36:58.132Z,1016.66
2023-05-17T05:37:28.987Z,1016.66
2023-05-17T05:38:00.161Z,1016.65
2023-05-17T05:38:30.609Z,1016.66
2023-05-17T05:39:01.759Z,1016.67
2023-05-17T05:39:32.257Z,1016.66
2023-05-17T05:40:03.144Z,1016.66
2023-05-17T05:40:34.010Z,1016.66
2023-05-17T05:41:04.864Z,1016.66
2023-05-17T05:41:35.703Z,1016.66
2023-05-17T05:42:06.565Z,1016.66
2023-05-17T05:42:37.404Z,1016.67
2023-05-17T05:43:08.281Z,1016.66
2023-05-17T05:43:39.119Z,1016.67
2023-05-17T05:44:10.299Z,1016.68
2023-05-17T05:44:40.650Z,1016.69
2023-05-17T05:45:11.880Z,1016.69
2023-05-17T05:45:42.484Z,1016.68
2023-05-17T05:46:13.024Z,1016.67
2023-05-17T05:46:43.584Z,1016.68
2023-05-17T05:47:13.927Z,1016.67
2023-05-17T05:47:44.845Z,1016.63
2023-05-17T05:48:15.430Z,1016.65
2023-05-17T05:48:45.938Z,1016.66
2023-05-17T05:49:16.817Z,1016.68
2023-05-17T05:49:47.791Z,1016.69
2023-05-17T05:50:18.644Z,1016.69
2023-05-17T05:50:49.616Z,1016.68
2023-05-17T05:51:22.582Z,1016.69
2023-05-17T05:51:51.616Z,1016.67
2023-05-17T05:52:22.079Z,1016.70
2023-05-17T05:52:56.248Z,1016.71
2023-05-17T05:53:24.804Z,1016.72
2023-05-17T05:53:54.724Z,1016.71
2023-05-17T05:54:25.553Z,1016.72
2023-05-17T05:54:56.395Z,1016.71
2023-05-17T05:55:27.217Z,1016.71
2023-05-17T05:55:58.060Z,1016.71
2023-05-17T05:56:28.998Z,1016.70
2023-05-17T05:57:00.194Z,1016.71
2023-05-17T05:57:30.695Z,1016.70
2023-05-17T05:58:01.873Z,1016.73
2023-05-17T05:58:32.410Z,1016.73
2023-05-17T05:59:03.278Z,1016.71
2023-05-17T05:59:33.661Z,1016.72
2023-05-17T06:00:04.156Z,1016.71
2023-05-17T06:00:35.134Z,1016.71
2023-05-17T06:01:06.538Z,1016.72
2023-05-17T06:01:36.108Z,1016.73
2023-05-17T06:02:07.106Z,1016.72
2023-05-17T06:02:37.537Z,1016.73
2023-05-17T06:03:08.439Z,1016.76
2023-05-17T06:03:39.110Z,1016.76
2023-05-17T06:04:10.086Z,1016.77
2023-05-17T06:04:45.267Z,1016.75
2023-05-17T06:05:12.994Z,1016.78
2023-05-17T06:05:42.651Z,1016.79
2023-05-17T06:06:13.768Z,1016.79
2023-05-17T06:06:44.338Z,1016.77
2023-05-17T06:07:15.238Z,1016.76
2023-05-17T06:07:46.144Z,1016.77
2023-05-17T06:08:17.034Z,1016.72
2023-05-17T06:08:47.884Z,1016.72
2023-05-17T06:09:18.713Z,1016.71
2023-05-17T06:09:49.570Z,1016.72
2023-05-17T06:10:20.515Z,1016.73
2023-05-17T06:10:51.411Z,1016.75
2023-05-17T06:11:22.307Z,1016.75
2023-05-17T06:11:53.200Z,1016.73
2023-05-17T06:12:24.210Z,1016.75